createdAt,value
2019-03-29T00:00:36.177Z,4.80
2019-03-29T00:01:36.125Z,5.30
2019-03-29T00:02:36.109Z,5.00
2019-03-29T00:03:36.134Z,4.60
2019-03-29T00:04:36.084Z,6.00
2019-03-29T00:05:36.574Z,5.10
2019-03-29T00:06:36.412Z,4.50
2019-03-29T00:07:39.836Z,4.90
2019-03-29T00:08:36.141Z,5.00
2019-03-29T00:09:36.035Z,5.10
2019-03-29T00:10:36.034Z,4.90
2019-03-29T00:11:36.006Z,5.20
2019-03-29T00:12:36.011Z,5.10
2019-03-29T00:13:35.994Z,5.60
2019-03-29T00:14:35.989Z,6.00
2019-03-29T00:15:35.987Z,5.10
2019-03-29T00:16:35.952Z,5.70
2019-03-29T00:17:35.979Z,5.20
2019-03-29T00:18:36.342Z,4.70
2019-03-29T00:19:35.952Z,4.70
2019-03-29T00:20:35.922Z,4.20
2019-03-29T00:21:35.895Z,5.50
2019-03-29T00:22:35.894Z,5.20
2019-03-29T00:23:35.870Z,4.50
2019-03-29T00:24:35.867Z,4.90
2019-03-29T00:25:35.891Z,4.60
2019-03-29T00:26:35.844Z,4.70
2019-03-29T00:27:35.837Z,4.80
2019-03-29T00:28:36.845Z,6.10
2019-03-29T00:29:35.805Z,5.60
2019-03-29T00:30:35.812Z,4.90
2019-03-29T00:31:35.787Z,5.30
2019-03-29T00:32:35.774Z,4.70
2019-03-29T00:33:35.761Z,5.60
2019-03-29T00:34:35.752Z,4.70
2019-03-29T00:35:35.760Z,5.50
2019-03-29T00:36:35.732Z,4.40
2019-03-29T00:37:35.757Z,5.00
2019-03-29T00:38:35.725Z,4.70
2019-03-29T00:39:35.700Z,4.90
2019-03-29T00:40:35.701Z,5.30
2019-03-29T00:41:35.687Z,5.30
2019-03-29T00:42:35.658Z,5.40
2019-03-29T00:43:35.651Z,5.70
2019-03-29T00:44:35.654Z,4.90
2019-03-29T00:45:35.659Z,5.40
2019-03-29T00:46:35.618Z,5.60
2019-03-29T00:47:35.624Z,4.30
2019-03-29T00:48:36.080Z,5.70
2019-03-29T00:49:35.579Z,4.90
2019-03-29T00:50:35.601Z,5.20
2019-03-29T00:51:35.570Z,4.50
2019-03-29T00:52:35.567Z,4.90
2019-03-29T00:53:35.943Z,5.90
2019-03-29T00:54:35.530Z,5.50
2019-03-29T00:55:35.548Z,5.80
2019-03-29T00:56:35.508Z,5.20
2019-03-29T00:57:35.518Z,5.20
2019-03-29T00:58:35.589Z,4.30
2019-03-29T00:59:35.468Z,5.30
2019-03-29T01:00:35.515Z,4.70
2019-03-29T01:01:35.456Z,5.10
2019-03-29T01:02:35.457Z,4.70
2019-03-29T01:03:35.431Z,4.60
2019-03-29T01:04:35.432Z,5.40
2019-03-29T01:05:35.416Z,4.90
2019-03-29T01:06:35.404Z,4.90
2019-03-29T01:07:35.384Z,5.00
2019-03-29T01:08:35.464Z,4.50
2019-03-29T01:09:35.357Z,4.60
2019-03-29T01:10:35.365Z,4.20
2019-03-29T01:11:35.339Z,4.90
2019-03-29T01:12:35.353Z,5.40
2019-03-29T01:13:35.323Z,5.00
2019-03-29T01:14:35.302Z,5.50
2019-03-29T01:15:35.953Z,4.40
2019-03-29T01:16:35.283Z,4.70
2019-03-29T01:17:35.285Z,5.60
2019-03-29T01:18:35.266Z,4.70
2019-03-29T01:19:35.251Z,4.30
2019-03-29T01:20:35.361Z,4.90
2019-03-29T01:21:35.246Z,3.90
2019-03-29T01:22:35.221Z,5.80
2019-03-29T01:23:35.203Z,4.40
2019-03-29T01:24:35.200Z,5.30
2019-03-29T01:25:35.445Z,5.50
2019-03-29T01:26:35.193Z,4.80
2019-03-29T01:27:35.159Z,4.60
2019-03-29T01:28:35.151Z,4.50
2019-03-29T01:29:35.146Z,4.50
2019-03-29T01:30:35.127Z,5.10
2019-03-29T01:31:35.132Z,4.30
2019-03-29T01:32:35.106Z,4.30
2019-03-29T01:33:35.097Z,4.40
2019-03-29T01:34:35.085Z,3.80
2019-03-29T01:35:35.974Z,4.30
2019-03-29T01:36:35.073Z,4.70
2019-03-29T01:37:35.054Z,4.90
2019-03-29T01:38:35.104Z,4.90
2019-03-29T01:39:35.024Z,6.20
2019-03-29T01:40:35.191Z,5.00
2019-03-29T01:41:35.035Z,5.10
2019-03-29T01:42:34.993Z,5.00
2019-03-29T01:43:35.276Z,5.00
2019-03-29T01:44:34.972Z,4.80
2019-03-29T01:45:34.954Z,5.20
2019-03-29T01:46:34.966Z,4.60
2019-03-29T01:47:34.936Z,4.80
2019-03-29T01:48:34.923Z,4.80
2019-03-29T01:49:34.912Z,5.20
2019-03-29T01:50:35.124Z,5.10
2019-03-29T01:51:34.905Z,5.00
2019-03-29T01:52:34.879Z,4.40
2019-03-29T01:53:34.876Z,4.20
2019-03-29T01:54:34.866Z,5.20
2019-03-29T01:55:34.845Z,4.60
2019-03-29T01:56:34.844Z,4.50
2019-03-29T01:57:34.830Z,4.50
2019-03-29T01:58:34.822Z,4.70
2019-03-29T01:59:34.819Z,4.70
2019-03-29T02:00:36.083Z,4.90
2019-03-29T02:01:34.790Z,4.30
2019-03-29T02:02:34.859Z,4.30
2019-03-29T02:03:34.753Z,4.60
2019-03-29T02:04:34.978Z,4.40
2019-03-29T02:05:34.742Z,4.70
2019-03-29T02:06:34.734Z,4.50
2019-03-29T02:07:34.721Z,4.60
2019-03-29T02:08:35.908Z,4.70
2019-03-29T02:09:34.702Z,5.30
2019-03-29T02:10:34.707Z,4.20
2019-03-29T02:11:34.677Z,4.40
2019-03-29T02:12:34.656Z,4.80
2019-03-29T02:13:34.680Z,4.30
2019-03-29T02:14:34.649Z,4.10
2019-03-29T02:15:34.617Z,4.80
2019-03-29T02:16:34.712Z,4.70
2019-03-29T02:17:34.598Z,4.50
2019-03-29T02:18:34.590Z,4.60
2019-03-29T02:19:34.589Z,4.80
2019-03-29T02:20:34.566Z,4.70
2019-03-29T02:21:34.588Z,3.90
2019-03-29T02:22:34.542Z,4.70
2019-03-29T02:23:34.526Z,4.70
2019-03-29T02:24:34.518Z,4.30
2019-03-29T02:25:34.526Z,4.40
2019-03-29T02:26:34.925Z,4.10
2019-03-29T02:27:34.520Z,4.10
2019-03-29T02:28:34.478Z,4.50
2019-03-29T02:29:34.478Z,4.70
2019-03-29T02:30:34.493Z,5.00
2019-03-29T02:31:34.453Z,4.50
2019-03-29T02:32:34.433Z,5.30
2019-03-29T02:33:34.418Z,4.60
2019-03-29T02:34:34.415Z,4.30
2019-03-29T02:35:34.396Z,4.60
2019-03-29T02:36:34.658Z,4.40
2019-03-29T02:37:34.390Z,4.10
2019-03-29T02:38:34.370Z,4.90
2019-03-29T02:39:34.360Z,4.50
2019-03-29T02:40:34.337Z,5.40
2019-03-29T02:41:34.345Z,4.10
2019-03-29T02:42:34.322Z,4.20
2019-03-29T02:43:34.323Z,5.00
2019-03-29T02:44:34.959Z,4.40
2019-03-29T02:45:34.299Z,3.90
2019-03-29T02:46:34.302Z,5.00
2019-03-29T02:47:34.262Z,3.70
2019-03-29T02:48:34.274Z,4.20
2019-03-29T02:49:34.256Z,4.10
2019-03-29T02:50:34.227Z,4.40
2019-03-29T02:51:34.233Z,3.80
2019-03-29T02:52:34.205Z,3.90
2019-03-29T02:53:34.208Z,3.90
2019-03-29T02:54:34.187Z,4.90
2019-03-29T02:55:34.183Z,4.20
2019-03-29T02:56:34.184Z,4.10
2019-03-29T02:57:34.154Z,5.80
2019-03-29T02:58:34.135Z,4.20
2019-03-29T02:59:34.121Z,4.20
2019-03-29T03:00:34.117Z,5.00
2019-03-29T03:01:34.228Z,4.50
2019-03-29T03:02:34.133Z,4.80
2019-03-29T03:03:34.096Z,4.30
2019-03-29T03:04:34.076Z,4.20
2019-03-29T03:05:34.055Z,4.50
2019-03-29T03:06:34.064Z,4.40
2019-03-29T03:07:34.066Z,4.60
2019-03-29T03:08:34.048Z,4.30
2019-03-29T03:09:34.025Z,4.00
2019-03-29T03:10:34.001Z,4.50
2019-03-29T03:11:34.007Z,4.00
2019-03-29T03:12:33.997Z,4.20
2019-03-29T03:13:33.973Z,4.10
2019-03-29T03:14:33.953Z,4.80
2019-03-29T03:15:34.751Z,4.50
2019-03-29T03:16:33.933Z,4.10
2019-03-29T03:17:33.944Z,4.10
2019-03-29T03:18:33.932Z,4.40
2019-03-29T03:19:34.038Z,4.10
2019-03-29T03:20:33.908Z,4.50
2019-03-29T03:21:33.981Z,4.30
2019-03-29T03:22:33.884Z,3.90
2019-03-29T03:23:33.900Z,4.90
2019-03-29T03:24:33.860Z,4.00
2019-03-29T03:25:34.089Z,5.20
2019-03-29T03:26:33.827Z,3.70
2019-03-29T03:27:33.902Z,3.90
2019-03-29T03:28:33.817Z,4.40
2019-03-29T03:29:34.324Z,4.70
2019-03-29T03:30:33.801Z,4.00
2019-03-29T03:31:33.975Z,4.00
2019-03-29T03:32:33.805Z,4.40
2019-03-29T03:33:33.764Z,4.20
2019-03-29T03:34:33.734Z,4.30
2019-03-29T03:35:33.733Z,4.10
2019-03-29T03:36:33.716Z,4.20
2019-03-29T03:37:33.718Z,4.10
2019-03-29T03:38:33.717Z,4.10
2019-03-29T03:39:33.688Z,4.50
2019-03-29T03:40:33.663Z,3.70
2019-03-29T03:41:33.659Z,4.40
2019-03-29T03:42:33.655Z,4.50
2019-03-29T03:43:33.648Z,4.60
2019-03-29T03:44:33.629Z,3.80
2019-03-29T03:45:33.626Z,4.10
2019-03-29T03:46:33.635Z,4.00
2019-03-29T03:47:33.595Z,4.90
2019-03-29T03:48:33.582Z,4.40
2019-03-29T03:49:33.568Z,3.90
2019-03-29T03:50:33.550Z,4.00
2019-03-29T03:51:33.558Z,4.60
2019-03-29T03:52:33.569Z,4.90
2019-03-29T03:53:33.523Z,3.90
2019-03-29T03:54:33.504Z,3.80
2019-03-29T03:55:33.500Z,4.10
2019-03-29T03:56:33.483Z,4.60
2019-03-29T03:57:33.505Z,4.10
2019-03-29T03:58:33.471Z,4.20
2019-03-29T03:59:33.451Z,4.00
2019-03-29T04:00:33.454Z,4.20
2019-03-29T04:01:33.450Z,4.30
2019-03-29T04:02:33.433Z,4.10
2019-03-29T04:03:33.444Z,3.90
2019-03-29T04:04:37.486Z,4.70
2019-03-29T04:05:33.395Z,4.70
2019-03-29T04:06:33.390Z,4.70
2019-03-29T04:07:33.385Z,4.40
2019-03-29T04:08:33.351Z,5.60
2019-03-29T04:09:48.528Z,4.10
2019-03-29T04:10:33.331Z,4.20
2019-03-29T04:11:33.318Z,4.40
2019-03-29T04:12:33.335Z,3.90
2019-03-29T04:13:33.290Z,3.70
2019-03-29T04:14:33.323Z,4.00
2019-03-29T04:15:33.273Z,4.20
2019-03-29T04:16:33.263Z,4.20
2019-03-29T04:17:33.263Z,4.00
2019-03-29T04:18:33.257Z,4.60
2019-03-29T04:19:33.271Z,4.40
2019-03-29T04:20:33.215Z,4.40
2019-03-29T04:21:33.221Z,4.30
2019-03-29T04:22:33.207Z,3.40
2019-03-29T04:23:33.179Z,4.50
2019-03-29T04:24:33.164Z,4.50
2019-03-29T04:25:33.164Z,4.10
2019-03-29T04:26:33.145Z,3.90
2019-03-29T04:27:33.162Z,3.90
2019-03-29T04:28:33.121Z,4.30
2019-03-29T04:29:33.126Z,4.20
2019-03-29T04:30:33.109Z,3.90
2019-03-29T04:31:33.103Z,4.90
2019-03-29T04:32:33.077Z,4.00
2019-03-29T04:33:33.067Z,4.20
2019-03-29T04:34:33.066Z,4.00
2019-03-29T04:35:33.050Z,4.00
2019-03-29T04:36:33.044Z,4.20
2019-03-29T04:37:33.022Z,3.50
2019-03-29T04:38:33.031Z,4.60
2019-03-29T04:39:33.004Z,3.70
2019-03-29T04:40:32.989Z,3.60
2019-03-29T04:41:32.986Z,5.00
2019-03-29T04:42:32.964Z,3.60
2019-03-29T04:43:32.982Z,4.60
2019-03-29T04:44:32.963Z,4.30
2019-03-29T04:45:32.930Z,4.40
2019-03-29T04:46:32.928Z,4.30
2019-03-29T04:47:32.906Z,4.20
2019-03-29T04:48:33.142Z,4.40
2019-03-29T04:49:32.887Z,4.10
2019-03-29T04:50:32.891Z,4.00
2019-03-29T04:51:32.866Z,4.00
2019-03-29T04:52:32.858Z,3.90
2019-03-29T04:53:32.870Z,4.10
2019-03-29T04:54:32.847Z,4.00
2019-03-29T04:55:32.840Z,4.70
2019-03-29T04:56:32.811Z,3.70
2019-03-29T04:57:32.798Z,3.50
2019-03-29T04:58:32.800Z,4.00
2019-03-29T04:59:32.775Z,4.20
2019-03-29T05:00:32.763Z,3.80
2019-03-29T05:01:32.800Z,4.20
2019-03-29T05:02:32.747Z,4.50
2019-03-29T05:03:32.798Z,4.30
2019-03-29T05:04:32.729Z,4.40
2019-03-29T05:05:32.710Z,3.80
2019-03-29T05:06:32.707Z,3.60
2019-03-29T05:07:32.689Z,3.80
2019-03-29T05:08:32.706Z,4.20
2019-03-29T05:09:32.662Z,4.70
2019-03-29T05:10:32.657Z,4.10
2019-03-29T05:11:32.654Z,4.20
2019-03-29T05:12:32.630Z,4.10
2019-03-29T05:13:32.640Z,3.90
2019-03-29T05:14:32.623Z,3.90
2019-03-29T05:15:32.601Z,3.60
2019-03-29T05:16:32.590Z,3.70
2019-03-29T05:17:32.579Z,3.30
2019-03-29T05:18:32.599Z,3.50
2019-03-29T05:19:32.563Z,4.20
2019-03-29T05:20:32.561Z,4.30
2019-03-29T05:21:32.541Z,3.70
2019-03-29T05:22:32.522Z,4.70
2019-03-29T05:23:32.551Z,3.80
2019-03-29T05:24:32.499Z,3.70
2019-03-29T05:25:32.502Z,4.50
2019-03-29T05:26:32.492Z,4.00
2019-03-29T05:27:32.480Z,4.30
2019-03-29T05:28:32.468Z,4.10
2019-03-29T05:29:32.448Z,4.60
2019-03-29T05:30:32.431Z,4.30
2019-03-29T05:31:32.425Z,4.20
2019-03-29T05:32:32.431Z,3.80
2019-03-29T05:33:32.422Z,3.70
2019-03-29T05:34:32.393Z,3.80
2019-03-29T05:35:32.376Z,4.40
2019-03-29T05:36:32.362Z,3.90
2019-03-29T05:37:32.380Z,4.10
2019-03-29T05:38:32.373Z,4.00
2019-03-29T05:39:32.352Z,4.60
2019-03-29T05:40:35.073Z,3.40
2019-03-29T05:41:32.306Z,4.70
2019-03-29T05:42:32.306Z,3.60
2019-03-29T05:43:32.305Z,3.60
2019-03-29T05:44:32.522Z,3.50
2019-03-29T05:45:32.272Z,4.70
2019-03-29T05:46:32.261Z,4.30
2019-03-29T05:47:32.246Z,4.10
2019-03-29T05:48:32.339Z,3.90
2019-03-29T05:49:32.228Z,3.50
2019-03-29T05:50:32.227Z,3.90
2019-03-29T05:51:32.198Z,3.30
2019-03-29T05:52:32.199Z,3.60
2019-03-29T05:53:32.281Z,4.40
2019-03-29T05:54:32.173Z,3.40
2019-03-29T05:55:33.064Z,4.20
2019-03-29T05:56:32.152Z,3.90
2019-03-29T05:57:32.136Z,3.20
2019-03-29T05:58:32.156Z,3.30
2019-03-29T05:59:32.121Z,4.20
2019-03-29T06:00:32.101Z,3.70
2019-03-29T06:01:32.093Z,3.50
2019-03-29T06:02:32.085Z,3.80
2019-03-29T06:03:32.072Z,4.10
2019-03-29T06:04:32.060Z,4.60
2019-03-29T06:05:32.049Z,3.90
2019-03-29T06:06:32.040Z,3.40
2019-03-29T06:07:32.054Z,3.70
2019-03-29T06:08:32.018Z,4.00
2019-03-29T06:09:34.832Z,3.90
2019-03-29T06:10:32.009Z,3.40
2019-03-29T06:11:31.992Z,3.30
2019-03-29T06:12:31.973Z,5.70
2019-03-29T06:13:31.958Z,7.60
2019-03-29T06:14:31.970Z,6.40
2019-03-29T06:15:31.939Z,7.80
2019-03-29T06:16:38.954Z,11.70
2019-03-29T06:17:31.939Z,8.30
2019-03-29T06:18:31.908Z,11.30
2019-03-29T06:19:31.920Z,12.60
2019-03-29T06:20:31.885Z,11.20
2019-03-29T06:21:31.866Z,10.60
2019-03-29T06:22:31.857Z,14.70
2019-03-29T06:23:31.853Z,11.30
2019-03-29T06:24:31.856Z,12.80
2019-03-29T06:25:31.830Z,13.50
2019-03-29T06:26:31.819Z,12.30
2019-03-29T06:27:31.805Z,14.10
2019-03-29T06:28:31.794Z,15.60
2019-03-29T06:29:31.794Z,12.70
2019-03-29T06:30:31.805Z,8.40
2019-03-29T06:31:31.765Z,11.00
2019-03-29T06:32:31.746Z,15.00
2019-03-29T06:33:31.730Z,10.90
2019-03-29T06:34:31.742Z,11.20
2019-03-29T06:35:31.716Z,10.80
2019-03-29T06:36:31.702Z,10.60
2019-03-29T06:37:31.695Z,10.80
2019-03-29T06:38:31.682Z,10.80
2019-03-29T06:39:31.699Z,11.50
2019-03-29T06:40:31.663Z,11.60
2019-03-29T06:41:31.671Z,15.10
2019-03-29T06:42:31.643Z,10.10
2019-03-29T06:43:31.631Z,10.40
2019-03-29T06:44:31.628Z,11.60
2019-03-29T06:45:31.844Z,10.70
2019-03-29T06:46:31.591Z,13.30
2019-03-29T06:47:31.624Z,10.60
2019-03-29T06:48:31.579Z,15.40
2019-03-29T06:49:31.638Z,13.80
2019-03-29T06:50:31.585Z,10.60
2019-03-29T06:51:31.541Z,11.00
2019-03-29T06:52:31.527Z,13.80
2019-03-29T06:53:31.532Z,11.80
2019-03-29T06:54:31.514Z,10.30
2019-03-29T06:55:31.496Z,13.90
2019-03-29T06:56:31.494Z,12.70
2019-03-29T06:57:31.474Z,16.40
2019-03-29T06:58:31.462Z,12.40
2019-03-29T06:59:31.467Z,16.00
2019-03-29T07:00:31.454Z,17.40
2019-03-29T07:01:31.434Z,18.10
2019-03-29T07:02:31.420Z,17.60
2019-03-29T07:03:31.408Z,16.60
2019-03-29T07:04:31.416Z,17.80
2019-03-29T07:05:31.382Z,14.40
2019-03-29T07:06:31.404Z,15.30
2019-03-29T07:07:31.361Z,17.20
2019-03-29T07:08:31.357Z,11.70
2019-03-29T07:09:31.357Z,13.90
2019-03-29T07:10:31.334Z,14.80
2019-03-29T07:11:31.324Z,11.80
2019-03-29T07:12:31.328Z,13.30
2019-03-29T07:13:31.305Z,12.90
2019-03-29T07:14:31.309Z,11.20
2019-03-29T07:15:31.276Z,11.80
2019-03-29T07:16:31.266Z,9.80
2019-03-29T07:17:31.273Z,10.30
2019-03-29T07:18:31.246Z,11.70
2019-03-29T07:19:31.252Z,11.50
2019-03-29T07:20:31.228Z,10.20
2019-03-29T07:21:31.205Z,10.40
2019-03-29T07:22:34.444Z,11.60
2019-03-29T07:23:31.209Z,10.50
2019-03-29T07:24:31.188Z,9.60
2019-03-29T07:25:31.170Z,10.20
2019-03-29T07:26:31.171Z,9.80
2019-03-29T07:27:43.873Z,11.60
2019-03-29T07:28:31.132Z,9.80
2019-03-29T07:29:31.145Z,10.10
2019-03-29T07:30:31.434Z,11.50
2019-03-29T07:31:31.123Z,11.30
2019-03-29T07:32:31.091Z,9.50
2019-03-29T07:33:31.853Z,10.10
2019-03-29T07:34:31.077Z,9.10
2019-03-29T07:35:31.054Z,9.10
2019-03-29T07:36:31.040Z,11.20
2019-03-29T07:37:31.054Z,8.60
2019-03-29T07:38:31.038Z,10.30
2019-03-29T07:39:31.016Z,9.70
2019-03-29T07:40:31.008Z,9.90
2019-03-29T07:41:32.524Z,9.60
2019-03-29T07:42:30.991Z,11.10
2019-03-29T07:43:30.976Z,9.40
2019-03-29T07:44:30.952Z,8.90
2019-03-29T07:45:30.957Z,9.60
2019-03-29T07:46:30.953Z,10.30
2019-03-29T07:47:30.936Z,9.40
2019-03-29T07:48:30.923Z,9.70
2019-03-29T07:49:30.910Z,8.10
2019-03-29T07:50:30.900Z,10.30
2019-03-29T07:51:30.914Z,11.00
2019-03-29T07:52:30.867Z,10.30
2019-03-29T07:53:31.431Z,9.90
2019-03-29T07:54:30.858Z,8.60
2019-03-29T07:55:30.867Z,8.00
2019-03-29T07:56:30.826Z,8.20
2019-03-29T07:57:30.830Z,7.80
2019-03-29T07:58:30.804Z,10.40
2019-03-29T07:59:30.788Z,8.60
2019-03-29T08:00:30.793Z,8.40
2019-03-29T08:01:32.495Z,10.80
2019-03-29T08:02:34.947Z,9.80
2019-03-29T08:03:30.782Z,7.00
2019-03-29T08:04:30.798Z,9.40
2019-03-29T08:05:30.749Z,8.80
2019-03-29T08:06:30.716Z,8.20
2019-03-29T08:07:31.548Z,7.40
2019-03-29T08:08:34.141Z,7.40
2019-03-29T08:09:30.680Z,7.60
2019-03-29T08:10:31.854Z,7.10
2019-03-29T08:11:40.145Z,6.20
2019-03-29T08:12:30.752Z,9.00
2019-03-29T08:13:30.637Z,7.60
2019-03-29T08:14:30.618Z,7.10
2019-03-29T08:15:30.622Z,10.50
2019-03-29T08:16:30.603Z,7.40
2019-03-29T08:17:30.599Z,9.30
2019-03-29T08:18:30.584Z,9.00
2019-03-29T08:19:30.580Z,8.30
2019-03-29T08:20:41.952Z,9.90
2019-03-29T08:21:30.545Z,7.50
2019-03-29T08:22:30.527Z,10.40
2019-03-29T08:23:30.527Z,9.40
2019-03-29T08:24:30.516Z,9.80
2019-03-29T08:25:30.510Z,7.00
2019-03-29T08:26:30.569Z,7.30
2019-03-29T08:27:30.504Z,8.60
2019-03-29T08:28:30.598Z,7.20
2019-03-29T08:29:31.475Z,8.40
2019-03-29T08:30:30.482Z,7.60
2019-03-29T08:31:30.429Z,7.50
2019-03-29T08:32:30.420Z,8.10
2019-03-29T08:33:30.445Z,8.70
2019-03-29T08:34:30.418Z,8.10
2019-03-29T08:35:30.458Z,7.70
2019-03-29T08:36:30.400Z,8.30
2019-03-29T08:37:30.407Z,7.10
2019-03-29T08:38:30.367Z,7.00
2019-03-29T08:39:30.339Z,7.20
2019-03-29T08:40:30.378Z,7.00
2019-03-29T08:41:30.335Z,9.50
2019-03-29T08:42:30.314Z,7.70
2019-03-29T08:43:30.303Z,7.80
2019-03-29T08:44:30.508Z,6.30
2019-03-29T08:45:30.304Z,6.80
2019-03-29T08:46:30.288Z,10.40
2019-03-29T08:47:30.342Z,8.60
2019-03-29T08:48:30.249Z,11.80
2019-03-29T08:49:30.228Z,7.60
2019-03-29T08:50:30.263Z,8.50
2019-03-29T08:51:30.199Z,9.80
2019-03-29T08:52:30.197Z,8.40
2019-03-29T08:53:30.188Z,8.10
2019-03-29T08:54:30.380Z,8.90
2019-03-29T08:55:30.173Z,7.10
2019-03-29T08:56:30.168Z,5.60
2019-03-29T08:57:30.139Z,6.80
2019-03-29T08:58:30.128Z,11.40
2019-03-29T08:59:30.123Z,6.50
2019-03-29T09:00:30.135Z,5.70
2019-03-29T09:01:30.101Z,7.90
2019-03-29T09:02:30.147Z,5.80
2019-03-29T09:03:30.075Z,6.60
2019-03-29T09:04:30.116Z,8.10
2019-03-29T09:05:30.063Z,5.60
2019-03-29T09:06:30.518Z,8.60
2019-03-29T09:07:43.624Z,6.80
2019-03-29T09:08:30.022Z,8.00
2019-03-29T09:09:30.011Z,6.70
2019-03-29T09:10:30.024Z,6.30
2019-03-29T09:11:30.030Z,7.20
2019-03-29T09:12:29.974Z,5.40
2019-03-29T09:13:29.982Z,6.00
2019-03-29T09:14:31.527Z,5.30
2019-03-29T09:15:29.946Z,7.40
2019-03-29T09:16:29.939Z,5.70
2019-03-29T09:17:29.941Z,7.40
2019-03-29T09:18:29.916Z,4.10
2019-03-29T09:19:29.933Z,6.30
2019-03-29T09:20:29.889Z,5.90
2019-03-29T09:21:29.973Z,5.90
2019-03-29T09:22:29.885Z,6.60
2019-03-29T09:23:30.450Z,5.60
2019-03-29T09:24:29.836Z,6.40
2019-03-29T09:25:29.834Z,4.90
2019-03-29T09:26:29.829Z,6.20
2019-03-29T09:27:31.932Z,4.10
2019-03-29T09:28:32.777Z,7.40
2019-03-29T09:29:29.815Z,4.30
2019-03-29T09:30:29.775Z,4.90
2019-03-29T09:31:30.103Z,5.20
2019-03-29T09:32:29.755Z,5.50
2019-03-29T09:33:29.738Z,5.00
2019-03-29T09:34:29.740Z,4.90
2019-03-29T09:35:30.136Z,4.10
2019-03-29T09:36:29.728Z,4.30
2019-03-29T09:37:29.697Z,4.40
2019-03-29T09:38:29.679Z,4.30
2019-03-29T09:39:29.684Z,4.60
2019-03-29T09:40:29.687Z,4.70
2019-03-29T09:41:29.662Z,5.50
2019-03-29T09:42:30.307Z,4.20
2019-03-29T09:43:29.632Z,3.40
2019-03-29T09:44:29.611Z,3.90
2019-03-29T09:45:29.602Z,3.70
2019-03-29T09:46:29.720Z,4.50
2019-03-29T09:47:36.015Z,4.30
2019-03-29T09:48:30.202Z,4.80
2019-03-29T09:49:29.565Z,4.60
2019-03-29T09:50:30.566Z,4.50
2019-03-29T09:51:29.583Z,3.50
2019-03-29T09:52:29.523Z,4.00
2019-03-29T09:53:29.535Z,4.20
2019-03-29T09:54:29.503Z,4.90
2019-03-29T09:55:29.501Z,3.40
2019-03-29T09:56:38.795Z,4.40
2019-03-29T09:57:37.427Z,4.60
2019-03-29T09:58:29.477Z,3.40
2019-03-29T09:59:29.453Z,3.20
2019-03-29T10:00:29.433Z,3.40
2019-03-29T10:01:29.563Z,3.90
2019-03-29T10:02:29.411Z,4.10
2019-03-29T10:03:29.420Z,3.50
2019-03-29T10:04:29.649Z,2.90
2019-03-29T10:05:31.256Z,3.30
2019-03-29T10:06:29.395Z,3.20
2019-03-29T10:07:29.356Z,4.60
2019-03-29T10:08:29.353Z,2.90
2019-03-29T10:09:29.341Z,2.50
2019-03-29T10:10:30.311Z,4.90
2019-03-29T10:11:29.352Z,4.10
2019-03-29T10:12:42.672Z,4.20
2019-03-29T10:13:29.298Z,4.10
2019-03-29T10:14:29.288Z,3.50
2019-03-29T10:15:29.301Z,4.70
2019-03-29T10:16:29.276Z,3.40
2019-03-29T10:17:29.244Z,4.30
2019-03-29T10:18:29.234Z,4.20
2019-03-29T10:19:29.252Z,2.50
2019-03-29T10:20:29.234Z,3.60
2019-03-29T10:21:29.237Z,2.60
2019-03-29T10:22:29.186Z,3.20
2019-03-29T10:23:29.205Z,2.50
2019-03-29T10:24:29.168Z,3.20
2019-03-29T10:25:29.172Z,3.50
2019-03-29T10:26:29.167Z,4.00
2019-03-29T10:27:29.150Z,5.00
2019-03-29T10:28:29.138Z,2.40
2019-03-29T10:29:29.121Z,3.10
2019-03-29T10:30:29.105Z,5.50
2019-03-29T10:31:32.614Z,3.70
2019-03-29T10:32:29.090Z,2.40
2019-03-29T10:33:29.073Z,4.10
2019-03-29T10:34:29.055Z,4.80
2019-03-29T10:35:29.034Z,4.40
2019-03-29T10:36:29.035Z,6.20
2019-03-29T10:37:29.019Z,5.80
2019-03-29T10:38:29.008Z,2.60
2019-03-29T10:39:28.997Z,2.80
2019-03-29T10:40:28.987Z,5.10
2019-03-29T10:41:28.977Z,5.70
2019-03-29T10:42:28.978Z,4.50
2019-03-29T10:43:28.959Z,4.00
2019-03-29T10:44:28.946Z,3.90
2019-03-29T10:45:28.944Z,4.20
2019-03-29T10:46:28.918Z,4.60
2019-03-29T10:47:42.459Z,4.50
2019-03-29T10:48:28.899Z,4.10
2019-03-29T10:49:28.881Z,5.10
2019-03-29T10:50:28.929Z,4.80
2019-03-29T10:51:28.877Z,5.10
2019-03-29T10:52:28.858Z,2.50
2019-03-29T10:53:29.085Z,4.40
2019-03-29T10:54:28.824Z,3.90
2019-03-29T10:55:28.819Z,2.30
2019-03-29T10:56:34.220Z,3.50
2019-03-29T10:57:28.825Z,3.30
2019-03-29T10:58:28.790Z,2.70
2019-03-29T10:59:28.790Z,4.80
2019-03-29T11:00:28.767Z,3.50
2019-03-29T11:01:28.751Z,3.00
2019-03-29T11:02:29.767Z,3.30
2019-03-29T11:03:29.022Z,2.10
2019-03-29T11:04:31.748Z,4.60
2019-03-29T11:05:28.726Z,5.00
2019-03-29T11:06:28.706Z,5.20
2019-03-29T11:07:28.735Z,4.80
2019-03-29T11:08:29.351Z,2.00
2019-03-29T11:09:28.660Z,4.00
2019-03-29T11:10:28.654Z,4.60
2019-03-29T11:11:28.640Z,2.60
2019-03-29T11:12:28.638Z,6.20
2019-03-29T11:13:28.628Z,2.90
2019-03-29T11:14:28.609Z,4.30
2019-03-29T11:15:28.685Z,2.80
2019-03-29T11:16:28.585Z,3.00
2019-03-29T11:17:28.582Z,5.50
2019-03-29T11:18:28.563Z,4.20
2019-03-29T11:19:28.568Z,3.20
2019-03-29T11:20:28.539Z,2.40
2019-03-29T11:21:28.533Z,2.60
2019-03-29T11:22:28.662Z,3.40
2019-03-29T11:23:29.277Z,2.40
2019-03-29T11:24:29.658Z,1.80
2019-03-29T11:25:28.491Z,3.00
2019-03-29T11:26:28.473Z,1.80
2019-03-29T11:27:28.473Z,3.10
2019-03-29T11:28:29.664Z,5.40
2019-03-29T11:29:28.454Z,1.70
2019-03-29T11:30:41.459Z,3.20
2019-03-29T11:31:28.422Z,2.20
2019-03-29T11:32:28.443Z,3.80
2019-03-29T11:33:28.409Z,2.60
2019-03-29T11:34:28.381Z,3.70
2019-03-29T11:35:28.401Z,3.20
2019-03-29T11:36:28.372Z,5.50
2019-03-29T11:37:28.373Z,2.90
2019-03-29T11:38:28.745Z,2.80
2019-03-29T11:39:28.338Z,5.30
2019-03-29T11:40:28.319Z,2.30
2019-03-29T11:41:28.322Z,2.80
2019-03-29T11:42:28.320Z,3.20
2019-03-29T11:43:28.285Z,2.70
2019-03-29T11:44:30.216Z,4.00
2019-03-29T11:45:28.280Z,1.80
2019-03-29T11:46:28.256Z,3.40
2019-03-29T11:47:28.270Z,2.50
2019-03-29T11:48:29.715Z,3.10
2019-03-29T11:49:28.238Z,2.20
2019-03-29T11:50:29.295Z,1.60
2019-03-29T11:51:28.212Z,1.60
2019-03-29T11:52:28.260Z,2.60
2019-03-29T11:53:28.191Z,1.60
2019-03-29T11:54:28.169Z,2.50
2019-03-29T11:55:28.158Z,1.60
2019-03-29T11:56:28.151Z,3.20
2019-03-29T11:57:28.149Z,2.80
2019-03-29T11:58:28.901Z,2.20
2019-03-29T11:59:28.109Z,1.80
2019-03-29T12:00:28.101Z,2.80
2019-03-29T12:01:28.101Z,1.60
2019-03-29T12:02:31.540Z,2.60
2019-03-29T12:03:28.067Z,1.50
2019-03-29T12:04:28.066Z,3.00
2019-03-29T12:05:28.063Z,1.20
2019-03-29T12:06:29.031Z,1.90
2019-03-29T12:07:28.035Z,2.30
2019-03-29T12:08:28.047Z,2.10
2019-03-29T12:09:28.006Z,3.30
2019-03-29T12:10:28.006Z,2.90
2019-03-29T12:11:28.018Z,2.30
2019-03-29T12:12:28.149Z,1.80
2019-03-29T12:13:40.361Z,2.50
2019-03-29T12:14:27.973Z,1.70
2019-03-29T12:25:12.091Z,1.10
2019-03-29T12:26:13.080Z,2.60
2019-03-29T12:27:13.060Z,3.00
2019-03-29T12:28:13.040Z,3.60
2019-03-29T12:29:13.042Z,2.40
2019-03-29T12:30:30.048Z,4.10
2019-03-29T12:31:13.002Z,4.80
2019-03-29T12:32:13.001Z,2.40
2019-03-29T12:33:12.982Z,1.50
2019-03-29T12:34:12.987Z,5.70
2019-03-29T12:35:12.980Z,3.20
2019-03-29T12:36:13.386Z,2.80
2019-03-29T12:37:12.950Z,5.50
2019-03-29T12:38:12.941Z,3.70
2019-03-29T12:39:12.918Z,1.80
2019-03-29T12:40:12.944Z,5.00
2019-03-29T12:41:12.901Z,2.30
2019-03-29T12:42:12.888Z,3.50
2019-03-29T12:43:12.945Z,8.10
2019-03-29T12:44:12.875Z,2.70
2019-03-29T12:45:12.885Z,5.10
2019-03-29T12:46:12.852Z,3.50
2019-03-29T12:47:12.835Z,3.70
2019-03-29T12:48:12.923Z,5.30
2019-03-29T12:49:12.821Z,4.50
2019-03-29T12:50:12.822Z,4.00
2019-03-29T12:51:12.799Z,4.10
2019-03-29T12:52:12.783Z,4.50
2019-03-29T12:53:12.777Z,3.60
2019-03-29T12:54:12.780Z,4.20
2019-03-29T12:55:12.760Z,4.90
2019-03-29T12:56:12.759Z,9.40
2019-03-29T12:57:12.750Z,5.00
2019-03-29T12:58:12.711Z,3.70
2019-03-29T12:59:12.769Z,3.30
2019-03-29T13:00:12.714Z,4.20
2019-03-29T13:01:12.682Z,6.00
2019-03-29T13:02:12.673Z,2.70
2019-03-29T13:03:12.911Z,3.40
2019-03-29T13:04:12.656Z,7.30
2019-03-29T13:05:12.653Z,4.20
2019-03-29T13:06:12.644Z,7.20
2019-03-29T13:07:12.646Z,3.00
2019-03-29T13:08:12.613Z,6.40
2019-03-29T13:09:12.608Z,5.70
2019-03-29T13:10:12.614Z,6.00
2019-03-29T13:11:12.596Z,5.70
2019-03-29T13:12:12.591Z,4.50
2019-03-29T13:13:12.552Z,3.90
2019-03-29T13:14:12.550Z,4.90
2019-03-29T13:15:12.556Z,4.60
2019-03-29T13:16:12.541Z,4.80
2019-03-29T13:17:12.532Z,5.60
2019-03-29T13:18:12.512Z,5.00
2019-03-29T13:19:12.491Z,7.10
2019-03-29T13:20:12.499Z,4.10
2019-03-29T13:21:12.489Z,3.40
2019-03-29T13:22:12.457Z,4.90
2019-03-29T13:23:12.453Z,6.60
2019-03-29T13:24:15.733Z,12.40
2019-03-29T13:25:12.447Z,4.90